Porth, United Kingdom
Current Conditions -  °F | °C
As of 11:50 PM on Wednesday 26 Nov 2014 (Local Time) from EGDX Reporting Station
Haze Haze  
Wind Chill: 42°   Ceiling: 2300
Heat Index: 45°   Visibility: 2mi
Dew Point: 45°   Wind: 5mph
Humidity: 100%   Direction: 70°ENE
Pressure: 29.71"   Gusts: NA
Location:  51.62°N, 3.41°W
Report Text: EGDX 262350Z AUTO 07004KT 3300 BR FEW002/// BKN023/// 07/07 Q1006
Loading
Personal Weather Stations






























Interactive Weather Map New forecast layout! Learn more

10-Day Weather Forecast

Advertisements
Track Severe Weather on mobile